Maunaloa, Hawaii
Current Conditions -  °F | °C
As of 11:54 PM on Thursday 23 Oct 2014 (Local Time) from PHMK Reporting Station
Clear Clear  
Wind Chill: 74°   Ceiling: Unl
Heat Index: 74°   Visibility: 10mi
Dew Point: 72°   Wind: 8mph
Humidity: 93%   Direction: 30°NNE
Pressure: 30.06"   Gusts: NA
Location:  21.13°N, 157.21°W
Report Text: PHMK 240954Z AUTO 03007KT 10SM CLR 23/22 A3006 RMK AO2 RAB0857E06 SLP178 P0000 T02330222 402890206 TSNO $
Loading
Personal Weather Stations






























Interactive Weather Map
Tropical Storm Tracking
New forecast layout! Learn more

10-Day Weather Forecast

Advertisements
Track Severe Weather on mobile